Time;durP1;ratioP1;P1;durP2;ratioP2;P2;SDS_P1;SDS_P2;PMS_P1;PMS_P2;Temp;Humidity;BMP_temperature;BMP_pressure;BME280_temperature;BME280_humidity;BME280_pressure;Samples;Min_cycle;Max_cycle;Signal;HPM_P1;HPM_P2
2023/05/21 00:00:22;;;;;;;58.53;3.10;;;;;;;;;;5069744;28;20951;-69
2023/05/21 00:02:50;;;;;;;58.03;3.70;;;;;;;;;;5073201;28;20939;-69
2023/05/21 00:05:17;;;;;;;57.37;2.73;;;;;;;;;;5074102;28;20458;-69
2023/05/21 00:07:45;;;;;;;58.27;3.40;;;;;;;;;;5073980;28;20567;-69
2023/05/21 00:10:13;;;;;;;58.00;3.03;;;;;;;;;;5073103;28;20936;-69
2023/05/21 00:12:41;;;;;;;66.30;4.80;;;;;;;;;;5074108;28;20842;-69
2023/05/21 00:15:10;;;;;;;58.17;3.77;;;;;;;;;;5074248;28;20863;-69
2023/05/21 00:17:38;;;;;;;58.50;4.10;;;;;;;;;;5073975;28;20447;-69
2023/05/21 00:20:07;;;;;;;58.07;3.63;;;;;;;;;;5073178;28;20492;-69
2023/05/21 00:22:35;;;;;;;57.90;2.90;;;;;;;;;;5074166;28;20541;-69
2023/05/21 00:25:03;;;;;;;59.10;4.20;;;;;;;;;;5073522;28;20468;-69
2023/05/21 00:27:30;;;;;;;57.77;3.60;;;;;;;;;;5073994;28;20448;-69
2023/05/21 00:29:57;;;;;;;58.27;4.17;;;;;;;;;;5073077;28;20479;-69
2023/05/21 00:32:25;;;;;;;60.83;4.37;;;;;;;;;;5073886;28;20477;-69
2023/05/21 00:34:52;;;;;;;58.17;4.07;;;;;;;;;;5073491;28;20448;-69
2023/05/21 00:37:20;;;;;;;58.83;4.50;;;;;;;;;;5073457;28;20452;-69
2023/05/21 00:39:47;;;;;;;59.47;3.57;;;;;;;;;;5072853;28;20835;-69
2023/05/21 00:42:16;;;;;;;57.47;3.40;;;;;;;;;;5073637;28;20467;-69
2023/05/21 00:44:44;;;;;;;60.03;3.80;;;;;;;;;;5073449;28;20870;-69
2023/05/21 00:47:12;;;;;;;58.83;3.80;;;;;;;;;;5073620;28;20508;-68
2023/05/21 00:49:41;;;;;;;59.80;4.43;;;;;;;;;;5072469;28;20479;-68
2023/05/21 00:52:08;;;;;;;58.00;3.77;;;;;;;;;;5073283;28;20471;-69
2023/05/21 00:54:35;;;;;;;59.20;4.80;;;;;;;;;;5073155;28;20940;-69
2023/05/21 00:57:03;;;;;;;57.57;2.80;;;;;;;;;;5073490;28;20444;-69
2023/05/21 00:59:30;;;;;;;59.13;4.47;;;;;;;;;;5072342;28;20465;-69
2023/05/21 01:02:03;;;;;;;57.13;2.60;;;;;;;;;;5073093;28;20474;-69
2023/05/21 01:04:30;;;;;;;58.27;4.30;;;;;;;;;;5072845;28;20447;-69
2023/05/21 01:06:59;;;;;;;59.20;4.40;;;;;;;;;;5073180;28;20455;-69
2023/05/21 01:09:27;;;;;;;57.60;3.50;;;;;;;;;;5072288;28;20487;-68
2023/05/21 01:11:54;;;;;;;57.80;3.33;;;;;;;;;;5073037;28;20518;-68
2023/05/21 01:14:23;;;;;;;58.00;2.90;;;;;;;;;;5072286;28;20451;-69
2023/05/21 01:16:50;;;;;;;61.97;3.90;;;;;;;;;;5072693;28;20819;-69
2023/05/21 01:19:19;;;;;;;57.40;3.07;;;;;;;;;;5071974;28;20446;-69
2023/05/21 01:21:47;;;;;;;57.60;3.57;;;;;;;;;;5072889;28;20474;-69
2023/05/21 01:24:16;;;;;;;59.40;2.97;;;;;;;;;;5072660;28;20459;-69
2023/05/21 01:26:45;;;;;;;58.80;3.50;;;;;;;;;;5072684;28;20557;-69
2023/05/21 01:29:12;;;;;;;59.57;4.87;;;;;;;;;;5071546;28;21022;-69
2023/05/21 01:31:45;;;;;;;59.30;4.40;;;;;;;;;;5072150;28;20467;-69
2023/05/21 01:34:14;;;;;;;57.90;3.73;;;;;;;;;;5072567;28;20455;-69
2023/05/21 01:36:44;;;;;;;58.50;3.70;;;;;;;;;;5072610;28;20502;-69
2023/05/21 01:39:15;;;;;;;57.37;2.97;;;;;;;;;;5071563;28;20443;-69
2023/05/21 01:41:45;;;;;;;58.97;5.73;;;;;;;;;;5069558;28;20495;-69
2023/05/21 01:44:13;;;;;;;57.30;2.50;;;;;;;;;;5072303;28;20474;-68
2023/05/21 01:46:40;;;;;;;58.83;3.47;;;;;;;;;;5072103;28;20447;-68
2023/05/21 01:49:08;;;;;;;58.07;3.30;;;;;;;;;;5071521;28;20518;-68
2023/05/21 01:51:35;;;;;;;59.13;3.33;;;;;;;;;;5071754;28;20477;-68
2023/05/21 01:54:03;;;;;;;57.60;3.33;;;;;;;;;;5072139;28;20447;-68
2023/05/21 01:56:32;;;;;;;59.30;3.30;;;;;;;;;;5072192;28;20447;-68
2023/05/21 01:59:01;;;;;;;58.10;3.20;;;;;;;;;;5071188;28;20470;-68
2023/05/21 02:01:29;;;;;;;58.30;3.10;;;;;;;;;;5071683;28;21017;-68
2023/05/21 02:03:56;;;;;;;58.07;3.80;;;;;;;;;;5071714;28;20474;-69
2023/05/21 02:06:23;;;;;;;58.10;2.87;;;;;;;;;;5071987;28;20450;-69
2023/05/21 02:08:50;;;;;;;57.57;2.80;;;;;;;;;;5071161;28;20487;-69
2023/05/21 02:11:18;;;;;;;60.40;3.57;;;;;;;;;;5071936;28;20471;-68
2023/05/21 02:13:45;;;;;;;58.73;3.97;;;;;;;;;;5071512;28;21035;-68
2023/05/21 02:16:14;;;;;;;57.30;2.47;;;;;;;;;;5071581;28;20454;-68
2023/05/21 02:18:42;;;;;;;59.80;3.53;;;;;;;;;;5070652;28;20936;-69
2023/05/21 02:21:10;;;;;;;59.07;2.63;;;;;;;;;;5071613;28;20871;-68
2023/05/21 02:23:37;;;;;;;58.40;3.30;;;;;;;;;;5071501;28;20451;-68
2023/05/21 02:26:04;;;;;;;57.60;2.83;;;;;;;;;;5071728;28;20428;-69
2023/05/21 02:28:32;;;;;;;58.10;3.70;;;;;;;;;;5070698;28;20971;-68
2023/05/21 02:30:59;;;;;;;57.50;2.80;;;;;;;;;;5071704;28;20521;-69
2023/05/21 02:33:28;;;;;;;57.40;2.50;;;;;;;;;;5071577;28;20451;-68
2023/05/21 02:35:55;;;;;;;57.60;2.90;;;;;;;;;;5071589;28;20450;-68
2023/05/21 02:38:24;;;;;;;58.10;3.07;;;;;;;;;;5071196;28;20444;-68
2023/05/21 02:40:51;;;;;;;59.17;4.23;;;;;;;;;;5070488;28;20505;-69
2023/05/21 02:43:19;;;;;;;58.10;2.97;;;;;;;;;;5071161;28;20446;-68
2023/05/21 02:45:46;;;;;;;58.90;4.03;;;;;;;;;;5071065;28;20479;-68
2023/05/21 02:48:13;;;;;;;58.00;3.33;;;;;;;;;;5071108;28;20793;-69
2023/05/21 02:50:42;;;;;;;58.73;3.40;;;;;;;;;;5070188;28;20487;-68
2023/05/21 02:53:09;;;;;;;57.93;3.30;;;;;;;;;;5071251;28;20803;-69
2023/05/21 02:55:36;;;;;;;59.00;4.10;;;;;;;;;;5071178;28;20529;-68
2023/05/21 02:58:03;;;;;;;59.20;3.43;;;;;;;;;;5070959;28;20973;-68
2023/05/21 03:00:30;;;;;;;57.80;3.73;;;;;;;;;;5070519;28;20450;-68
2023/05/21 03:02:57;;;;;;;57.93;3.90;;;;;;;;;;5071041;28;20451;-68
2023/05/21 03:05:24;;;;;;;57.40;2.60;;;;;;;;;;5071166;28;20443;-68
2023/05/21 03:07:53;;;;;;;60.10;3.33;;;;;;;;;;5071152;28;20826;-68
2023/05/21 03:10:20;;;;;;;58.00;3.50;;;;;;;;;;5070089;28;20475;-68
2023/05/21 03:12:47;;;;;;;57.90;3.03;;;;;;;;;;5070815;28;20451;-69
2023/05/21 03:15:14;;;;;;;57.60;3.30;;;;;;;;;;5071229;28;20452;-68
2023/05/21 03:17:43;;;;;;;57.57;3.03;;;;;;;;;;5071024;28;20443;-68
2023/05/21 03:20:14;;;;;;;60.53;3.63;;;;;;;;;;5070085;28;20443;-68
2023/05/21 03:22:42;;;;;;;58.77;3.30;;;;;;;;;;5071187;28;20435;-68
2023/05/21 03:25:10;;;;;;;58.20;3.93;;;;;;;;;;5070631;28;20852;-68
2023/05/21 03:27:38;;;;;;;58.87;4.00;;;;;;;;;;5071062;28;20479;-68
2023/05/21 03:30:05;;;;;;;57.93;3.67;;;;;;;;;;5070181;28;20483;-68
2023/05/21 03:32:36;;;;;;;58.40;4.10;;;;;;;;;;5070852;28;20467;-68
2023/05/21 03:35:03;;;;;;;59.80;4.43;;;;;;;;;;5071042;28;20439;-68
2023/05/21 03:37:31;;;;;;;58.17;3.13;;;;;;;;;;5073105;28;20944;-69
2023/05/21 03:39:58;;;;;;;58.93;4.47;;;;;;;;;;5073929;28;20444;-68
2023/05/21 03:42:26;;;;;;;58.50;5.13;;;;;;;;;;5074743;28;20463;-68
2023/05/21 03:44:53;;;;;;;58.47;4.10;;;;;;;;;;5074552;28;20458;-68
2023/05/21 03:47:20;;;;;;;58.10;2.97;;;;;;;;;;5074448;28;20447;-68
2023/05/21 03:49:47;;;;;;;58.20;2.97;;;;;;;;;;5073465;28;20481;-68
2023/05/21 03:52:15;;;;;;;60.03;3.77;;;;;;;;;;5074174;28;20493;-68
2023/05/21 03:54:42;;;;;;;58.77;4.53;;;;;;;;;;5074193;28;20457;-68
2023/05/21 03:57:09;;;;;;;57.60;3.40;;;;;;;;;;5074111;28;20745;-68
2023/05/21 03:59:37;;;;;;;62.70;5.13;;;;;;;;;;5073518;28;20435;-68
2023/05/21 04:02:05;;;;;;;57.80;3.13;;;;;;;;;;5074052;28;20982;-68
2023/05/21 04:04:33;;;;;;;60.33;3.97;;;;;;;;;;5074299;28;20820;-68
2023/05/21 04:07:00;;;;;;;57.90;3.90;;;;;;;;;;5074371;28;20454;-68
2023/05/21 04:09:27;;;;;;;58.87;3.07;;;;;;;;;;5073549;28;20487;-68
2023/05/21 04:11:54;;;;;;;58.47;3.67;;;;;;;;;;5074182;28;20834;-69
2023/05/21 04:14:23;;;;;;;58.00;3.87;;;;;;;;;;5074217;28;20459;-68
2023/05/21 04:16:51;;;;;;;61.40;3.43;;;;;;;;;;5073883;28;20455;-68
2023/05/21 04:19:18;;;;;;;57.50;2.70;;;;;;;;;;5073295;28;20443;-68
2023/05/21 04:21:45;;;;;;;58.77;3.80;;;;;;;;;;5073626;28;20470;-68
2023/05/21 04:24:13;;;;;;;57.70;2.83;;;;;;;;;;5073980;28;20463;-68
2023/05/21 04:26:41;;;;;;;63.93;4.60;;;;;;;;;;5073799;28;20458;-68
2023/05/21 04:29:08;;;;;;;58.50;4.30;;;;;;;;;;5072999;28;20457;-68
2023/05/21 04:31:35;;;;;;;58.67;4.50;;;;;;;;;;5073770;28;20904;-68
2023/05/21 04:34:04;;;;;;;59.83;3.23;;;;;;;;;;5073866;28;20457;-68
2023/05/21 04:36:32;;;;;;;59.10;3.80;;;;;;;;;;5073423;28;20444;-68
2023/05/21 04:39:00;;;;;;;58.10;3.50;;;;;;;;;;5073099;28;20447;-68
2023/05/21 04:41:27;;;;;;;58.00;3.60;;;;;;;;;;5073662;28;20466;-68
2023/05/21 04:43:54;;;;;;;57.70;3.30;;;;;;;;;;5073470;28;20483;-68
2023/05/21 04:46:23;;;;;;;60.70;3.63;;;;;;;;;;5073845;28;20458;-68
2023/05/21 04:48:52;;;;;;;61.30;4.90;;;;;;;;;;5071298;28;20967;-68
2023/05/21 04:51:20;;;;;;;59.13;5.10;;;;;;;;;;5073172;28;20487;-68
2023/05/21 04:53:48;;;;;;;57.50;3.00;;;;;;;;;;5073729;28;20449;-68
2023/05/21 04:56:16;;;;;;;57.70;3.27;;;;;;;;;;5073442;28;20455;-68
2023/05/21 04:58:43;;;;;;;58.00;4.03;;;;;;;;;;5072234;28;20452;-68
2023/05/21 05:01:11;;;;;;;58.10;3.97;;;;;;;;;;5073369;28;20463;-68
2023/05/21 05:03:38;;;;;;;57.87;3.27;;;;;;;;;;5073302;28;20454;-68
2023/05/21 05:06:06;;;;;;;60.80;3.17;;;;;;;;;;5073287;28;20447;-68
2023/05/21 05:08:35;;;;;;;59.00;3.97;;;;;;;;;;5072703;28;20817;-68
2023/05/21 05:11:02;;;;;;;57.57;2.90;;;;;;;;;;5072931;28;20490;-68
2023/05/21 05:13:29;;;;;;;57.60;3.70;;;;;;;;;;5072984;28;20447;-68
2023/05/21 05:15:56;;;;;;;57.37;3.10;;;;;;;;;;5072728;28;20458;-68
2023/05/21 05:18:23;;;;;;;58.50;3.70;;;;;;;;;;5073030;28;20704;-68
2023/05/21 05:20:50;;;;;;;58.00;3.70;;;;;;;;;;5072021;28;20583;-68
2023/05/21 05:23:17;;;;;;;57.97;3.70;;;;;;;;;;5072593;28;20936;-68
2023/05/21 05:25:46;;;;;;;61.00;4.23;;;;;;;;;;5072719;28;20474;-68
2023/05/21 05:28:13;;;;;;;58.40;3.00;;;;;;;;;;5072557;28;20443;-68
2023/05/21 05:30:40;;;;;;;57.93;3.90;;;;;;;;;;5071835;28;20520;-68
2023/05/21 05:33:07;;;;;;;58.47;4.57;;;;;;;;;;5072382;28;20448;-68
2023/05/21 05:35:35;;;;;;;59.40;3.57;;;;;;;;;;5072612;28;20447;-68
2023/05/21 05:38:02;;;;;;;58.00;3.60;;;;;;;;;;5072585;28;20800;-68
2023/05/21 05:40:29;;;;;;;59.50;3.63;;;;;;;;;;5071487;28;20534;-68
2023/05/21 05:42:57;;;;;;;57.73;3.37;;;;;;;;;;5072034;28;20489;-68
2023/05/21 05:45:25;;;;;;;58.97;4.47;;;;;;;;;;5072432;28;20533;-68
2023/05/21 05:47:52;;;;;;;58.00;3.37;;;;;;;;;;5072302;28;20451;-68
2023/05/21 05:50:19;;;;;;;58.47;5.23;;;;;;;;;;5071469;28;20502;-68
2023/05/21 05:52:47;;;;;;;57.80;3.53;;;;;;;;;;5072405;28;20479;-68
2023/05/21 05:55:14;;;;;;;57.90;3.23;;;;;;;;;;5072192;28;20443;-68
2023/05/21 05:57:41;;;;;;;61.20;5.03;;;;;;;;;;5072245;28;20827;-68
2023/05/21 06:00:10;;;;;;;58.27;3.60;;;;;;;;;;5071163;28;20444;-69
2023/05/21 06:02:37;;;;;;;58.60;4.40;;;;;;;;;;5072227;28;20800;-68
2023/05/21 06:05:05;;;;;;;57.10;2.87;;;;;;;;;;5071787;28;20458;-68
2023/05/21 06:07:32;;;;;;;58.70;4.40;;;;;;;;;;5071976;28;20491;-69
2023/05/21 06:09:59;;;;;;;57.70;2.90;;;;;;;;;;5070665;28;20999;-68
2023/05/21 06:12:27;;;;;;;57.37;3.27;;;;;;;;;;5071982;28;20566;-69
2023/05/21 06:14:54;;;;;;;57.37;3.13;;;;;;;;;;5071960;28;20443;-69
2023/05/21 06:17:22;;;;;;;60.23;4.10;;;;;;;;;;5071682;28;20447;-68
2023/05/21 06:19:49;;;;;;;59.00;5.27;;;;;;;;;;5071052;28;20443;-68
2023/05/21 06:22:16;;;;;;;59.83;4.37;;;;;;;;;;5071351;28;20984;-68
2023/05/21 06:24:43;;;;;;;58.07;3.47;;;;;;;;;;5071363;28;20467;-68
2023/05/21 06:27:11;;;;;;;57.47;3.50;;;;;;;;;;5071669;28;20453;-68
2023/05/21 06:29:39;;;;;;;56.97;2.40;;;;;;;;;;5070979;28;20454;-68
2023/05/21 06:32:07;;;;;;;59.13;3.10;;;;;;;;;;5071252;28;20467;-68
2023/05/21 06:34:35;;;;;;;64.17;4.13;;;;;;;;;;5071343;28;20447;-69
2023/05/21 06:37:02;;;;;;;58.83;3.67;;;;;;;;;;5071331;28;20826;-69
2023/05/21 06:39:29;;;;;;;59.00;3.97;;;;;;;;;;5070660;28;20507;-68
2023/05/21 06:41:56;;;;;;;58.87;3.73;;;;;;;;;;5071344;28;20466;-69
2023/05/21 06:44:24;;;;;;;60.60;3.30;;;;;;;;;;5071306;28;20812;-69
2023/05/21 06:46:51;;;;;;;59.20;4.83;;;;;;;;;;5071421;28;20443;-69
2023/05/21 06:49:18;;;;;;;58.50;4.90;;;;;;;;;;5070364;28;20443;-68
2023/05/21 06:51:46;;;;;;;58.90;4.30;;;;;;;;;;5070887;28;21041;-68
2023/05/21 06:54:13;;;;;;;60.50;4.47;;;;;;;;;;5071433;28;20456;-68
2023/05/21 06:56:41;;;;;;;61.23;4.40;;;;;;;;;;5071347;28;20450;-68
2023/05/21 06:59:08;;;;;;;58.27;3.87;;;;;;;;;;5070267;28;20462;-68
2023/05/21 07:01:35;;;;;;;58.47;3.90;;;;;;;;;;5070948;28;20470;-68
2023/05/21 07:04:02;;;;;;;59.33;3.60;;;;;;;;;;5071408;28;20443;-69
2023/05/21 07:06:29;;;;;;;58.77;3.10;;;;;;;;;;5071241;28;20454;-68
2023/05/21 07:08:57;;;;;;;57.90;4.13;;;;;;;;;;5070345;28;20455;-69
2023/05/21 07:11:27;;;;;;;58.60;3.80;;;;;;;;;;5071520;28;21046;-68
2023/05/21 07:13:55;;;;;;;57.97;4.20;;;;;;;;;;5075143;28;20446;-69
2023/05/21 07:16:22;;;;;;;58.27;3.93;;;;;;;;;;5075266;28;20455;-68
2023/05/21 07:18:49;;;;;;;57.97;2.93;;;;;;;;;;5074416;28;20974;-69
2023/05/21 07:21:16;;;;;;;57.90;3.60;;;;;;;;;;5075109;28;20463;-68
2023/05/21 07:23:43;;;;;;;59.10;4.77;;;;;;;;;;5074854;28;20463;-68
2023/05/21 07:26:12;;;;;;;57.57;3.27;;;;;;;;;;5075207;28;20435;-69
2023/05/21 07:28:39;;;;;;;58.77;3.37;;;;;;;;;;5073936;28;20947;-68
2023/05/21 07:31:07;;;;;;;57.93;3.33;;;;;;;;;;5074527;28;20497;-69
2023/05/21 07:33:34;;;;;;;58.20;3.63;;;;;;;;;;5075024;28;20458;-69
2023/05/21 07:36:01;;;;;;;57.40;3.10;;;;;;;;;;5074620;28;20823;-69
2023/05/21 07:38:28;;;;;;;57.80;3.17;;;;;;;;;;5074664;28;20783;-68
2023/05/21 07:40:55;;;;;;;57.17;2.67;;;;;;;;;;5074006;28;20987;-68
2023/05/21 07:43:24;;;;;;;58.50;2.97;;;;;;;;;;5074647;28;21061;-68
2023/05/21 07:45:51;;;;;;;57.53;3.00;;;;;;;;;;5074347;28;20939;-68
2023/05/21 07:48:18;;;;;;;58.97;4.50;;;;;;;;;;5074497;28;20447;-69
2023/05/21 07:50:48;;;;;;;58.47;3.93;;;;;;;;;;5073470;28;20498;-69
2023/05/21 07:53:15;;;;;;;59.00;4.13;;;;;;;;;;5074273;28;20497;-69
2023/05/21 07:55:46;;;;;;;58.60;3.63;;;;;;;;;;5074480;28;20443;-69
2023/05/21 07:58:14;;;;;;;58.83;4.23;;;;;;;;;;5074621;28;20431;-68
2023/05/21 08:00:45;;;;;;;59.77;4.60;;;;;;;;;;5073741;28;20467;-68
2023/05/21 08:03:13;;;;;;;57.87;3.27;;;;;;;;;;5074456;28;20440;-68
2023/05/21 08:05:40;;;;;;;57.73;3.07;;;;;;;;;;5074476;28;20458;-69
2023/05/21 08:08:07;;;;;;;56.80;2.37;;;;;;;;;;5073967;28;20455;-69
2023/05/21 08:10:35;;;;;;;59.20;3.57;;;;;;;;;;5073389;28;20854;-68
2023/05/21 08:13:02;;;;;;;57.90;2.73;;;;;;;;;;5074225;28;20486;-69
2023/05/21 08:15:30;;;;;;;59.20;3.80;;;;;;;;;;5073999;28;20951;-69
2023/05/21 08:17:58;;;;;;;58.07;3.50;;;;;;;;;;5073944;28;20443;-68
2023/05/21 08:20:26;;;;;;;59.00;4.50;;;;;;;;;;5073012;28;20456;-69
2023/05/21 08:22:53;;;;;;;57.47;2.90;;;;;;;;;;5073721;28;20497;-69
2023/05/21 08:25:20;;;;;;;57.00;3.37;;;;;;;;;;5073496;28;20513;-69
2023/05/21 08:27:47;;;;;;;57.17;2.93;;;;;;;;;;5073820;28;20443;-69
2023/05/21 08:30:15;;;;;;;57.37;3.20;;;;;;;;;;5072829;28;20460;-69
2023/05/21 08:32:42;;;;;;;69.43;3.80;;;;;;;;;;5073787;28;20483;-69
2023/05/21 08:35:11;;;;;;;58.87;3.90;;;;;;;;;;5073483;28;20936;-69
2023/05/21 08:37:38;;;;;;;59.77;2.93;;;;;;;;;;5073717;28;20516;-68
2023/05/21 08:40:06;;;;;;;59.73;3.60;;;;;;;;;;5072952;28;20455;-69
2023/05/21 08:42:37;;;;;;;60.77;3.07;;;;;;;;;;5073602;28;20463;-68
2023/05/21 08:45:06;;;;;;;58.07;3.20;;;;;;;;;;5073556;28;20458;-69
2023/05/21 08:47:35;;;;;;;57.70;3.30;;;;;;;;;;5073395;28;20451;-69
2023/05/21 08:50:04;;;;;;;58.27;3.80;;;;;;;;;;5072615;28;20936;-68
2023/05/21 08:52:32;;;;;;;58.03;3.97;;;;;;;;;;5073250;28;20487;-68
2023/05/21 08:55:00;;;;;;;58.57;3.53;;;;;;;;;;5073762;28;20451;-69
2023/05/21 08:57:28;;;;;;;57.90;3.73;;;;;;;;;;5073214;28;20453;-69
2023/05/21 08:59:55;;;;;;;57.60;3.57;;;;;;;;;;5072615;28;20451;-69
2023/05/21 09:02:23;;;;;;;62.70;5.03;;;;;;;;;;5072945;28;20476;-69
2023/05/21 09:04:55;;;;;;;57.87;3.30;;;;;;;;;;5073189;28;20455;-69
2023/05/21 09:07:23;;;;;;;59.63;4.40;;;;;;;;;;5073249;28;20803;-69
2023/05/21 09:09:54;;;;;;;58.27;4.67;;;;;;;;;;5072637;28;20474;-69
2023/05/21 09:12:22;;;;;;;60.13;3.60;;;;;;;;;;5073084;28;20487;-68
2023/05/21 09:14:50;;;;;;;58.50;4.20;;;;;;;;;;5073034;28;20450;-69
2023/05/21 09:17:18;;;;;;;58.27;3.53;;;;;;;;;;5072615;28;20455;-69
2023/05/21 09:20:06;;;;;;;60.20;4.57;;;;;;;;;;5072159;28;20537;-69
2023/05/21 09:22:33;;;;;;;57.50;2.93;;;;;;;;;;5072710;28;20550;-69
2023/05/21 09:25:04;;;;;;;59.37;3.50;;;;;;;;;;5072607;28;20979;-69
2023/05/21 09:27:31;;;;;;;59.50;3.33;;;;;;;;;;5072817;28;20439;-69
2023/05/21 09:29:58;;;;;;;57.87;3.27;;;;;;;;;;5071509;28;20447;-69
2023/05/21 09:32:26;;;;;;;57.50;2.50;;;;;;;;;;5072533;28;20858;-69
2023/05/21 09:34:53;;;;;;;57.70;3.23;;;;;;;;;;5072014;28;20443;-69
2023/05/21 09:37:21;;;;;;;58.50;3.67;;;;;;;;;;5072361;28;20450;-69
2023/05/21 09:39:48;;;;;;;58.60;3.50;;;;;;;;;;5071890;28;20450;-69
2023/05/21 09:42:17;;;;;;;58.00;3.23;;;;;;;;;;5072059;28;20471;-69
2023/05/21 09:44:44;;;;;;;57.27;2.80;;;;;;;;;;5072168;28;20463;-69
2023/05/21 09:47:11;;;;;;;57.27;3.17;;;;;;;;;;5072538;28;20453;-69
2023/05/21 09:49:38;;;;;;;58.80;2.90;;;;;;;;;;5071481;28;20443;-69
2023/05/21 09:52:06;;;;;;;57.80;3.20;;;;;;;;;;5072157;28;20509;-69
2023/05/21 09:54:34;;;;;;;60.50;5.57;;;;;;;;;;5072342;28;20538;-69
2023/05/21 09:57:01;;;;;;;58.13;3.80;;;;;;;;;;5071946;28;20455;-69
2023/05/21 09:59:37;;;;;;;57.90;3.60;;;;;;;;;;5071545;28;20493;-69
2023/05/21 10:02:04;;;;;;;58.50;3.20;;;;;;;;;;5072086;28;20463;-69
2023/05/21 10:04:32;;;;;;;57.90;2.87;;;;;;;;;;5072015;28;20820;-69
2023/05/21 10:07:01;;;;;;;58.60;4.13;;;;;;;;;;5072278;28;20744;-69
2023/05/21 10:09:29;;;;;;;58.70;4.00;;;;;;;;;;5070830;28;20504;-69
2023/05/21 10:11:57;;;;;;;57.10;2.83;;;;;;;;;;5071864;28;20912;-69
2023/05/21 10:14:26;;;;;;;56.53;2.23;;;;;;;;;;5071799;28;20473;-69
2023/05/21 10:16:55;;;;;;;57.40;2.77;;;;;;;;;;5071867;28;20448;-70
2023/05/21 10:19:23;;;;;;;58.43;3.00;;;;;;;;;;5071355;28;20455;-69
2023/05/21 10:21:50;;;;;;;57.87;3.00;;;;;;;;;;5071904;28;20467;-69
2023/05/21 10:24:17;;;;;;;56.90;2.20;;;;;;;;;;5071277;28;21008;-69
2023/05/21 10:26:45;;;;;;;57.00;3.17;;;;;;;;;;5071856;28;20453;-69
2023/05/21 10:29:13;;;;;;;57.90;3.07;;;;;;;;;;5070638;28;20951;-69
2023/05/21 10:31:40;;;;;;;57.50;2.70;;;;;;;;;;5071472;28;20498;-70
2023/05/21 10:34:08;;;;;;;57.37;2.60;;;;;;;;;;5071397;28;20573;-69
2023/05/21 10:36:37;;;;;;;57.90;3.30;;;;;;;;;;5071289;28;20444;-70
2023/05/21 10:39:04;;;;;;;58.13;2.90;;;;;;;;;;5070547;28;20750;-70
2023/05/21 10:41:36;;;;;;;56.70;2.43;;;;;;;;;;5071354;28;20573;-70
2023/05/21 10:44:08;;;;;;;56.37;2.40;;;;;;;;;;5071468;28;20439;-70
2023/05/21 10:46:47;;;;;;;57.20;2.87;;;;;;;;;;5070636;28;20436;-70
2023/05/21 10:49:24;;;;;;;57.97;3.80;;;;;;;;;;5070673;28;20808;-70
2023/05/21 10:51:55;;;;;;;57.57;2.77;;;;;;;;;;5071301;28;20482;-70
2023/05/21 10:54:41;;;;;;;57.17;2.53;;;;;;;;;;5071298;28;20462;-70
2023/05/21 10:57:11;;;;;;;58.00;2.57;;;;;;;;;;5071056;28;20462;-70
2023/05/21 10:59:42;;;;;;;58.90;3.40;;;;;;;;;;5070216;28;20940;-69
2023/05/21 11:02:10;;;;;;;57.40;3.10;;;;;;;;;;5071230;28;20469;-70
2023/05/21 11:04:41;;;;;;;56.93;2.53;;;;;;;;;;5071325;28;20451;-70
2023/05/21 11:07:08;;;;;;;56.90;2.50;;;;;;;;;;5071303;28;20657;-70
2023/05/21 11:09:35;;;;;;;57.20;2.60;;;;;;;;;;5070538;28;20447;-70
2023/05/21 11:12:03;;;;;;;57.77;2.77;;;;;;;;;;5070870;28;21026;-70
2023/05/21 11:14:38;;;;;;;57.27;2.30;;;;;;;;;;5070885;28;20452;-70
2023/05/21 11:17:05;;;;;;;57.17;3.10;;;;;;;;;;5070936;28;20451;-70
2023/05/21 11:19:36;;;;;;;57.27;3.13;;;;;;;;;;5070511;28;20451;-70
2023/05/21 11:22:21;;;;;;;57.93;2.80;;;;;;;;;;5071095;28;20869;-70
2023/05/21 11:24:48;;;;;;;56.50;2.07;;;;;;;;;;5070792;28;20463;-70
2023/05/21 11:27:30;;;;;;;56.70;2.60;;;;;;;;;;5071156;28;20862;-70
2023/05/21 11:29:57;;;;;;;57.00;2.80;;;;;;;;;;5070126;28;20428;-70
2023/05/21 11:32:24;;;;;;;56.90;2.80;;;;;;;;;;5070643;28;20549;-70
2023/05/21 11:34:51;;;;;;;57.17;2.40;;;;;;;;;;5070873;28;20449;-68
2023/05/21 11:37:28;;;;;;;57.10;2.70;;;;;;;;;;5070963;28;20801;-68
2023/05/21 11:39:56;;;;;;;57.40;3.60;;;;;;;;;;5070203;28;20459;-69
2023/05/21 11:42:30;;;;;;;57.17;3.10;;;;;;;;;;5070673;28;21017;-69
2023/05/21 11:44:58;;;;;;;57.20;2.50;;;;;;;;;;5070935;28;20485;-69
2023/05/21 11:47:26;;;;;;;58.07;3.97;;;;;;;;;;5070446;28;20451;-69
2023/05/21 11:49:53;;;;;;;57.00;3.13;;;;;;;;;;5070056;28;20462;-68
2023/05/21 11:52:20;;;;;;;59.37;4.37;;;;;;;;;;5070797;28;20518;-69
2023/05/21 11:54:50;;;;;;;56.70;2.70;;;;;;;;;;5070502;28;20447;-69
2023/05/21 11:57:18;;;;;;;56.40;2.30;;;;;;;;;;5071117;28;20509;-69
2023/05/21 11:59:45;;;;;;;57.00;2.97;;;;;;;;;;5073669;28;20458;-69
2023/05/21 12:02:15;;;;;;;56.43;2.20;;;;;;;;;;5073869;28;20463;-69
2023/05/21 12:04:42;;;;;;;56.77;2.30;;;;;;;;;;5074051;28;20928;-69
2023/05/21 12:07:10;;;;;;;56.10;2.03;;;;;;;;;;5074184;28;20443;-69
2023/05/21 12:09:40;;;;;;;56.30;2.07;;;;;;;;;;5073563;28;20443;-69
2023/05/21 12:12:10;;;;;;;56.77;2.30;;;;;;;;;;5073880;28;20493;-69
2023/05/21 12:14:37;;;;;;;57.27;2.67;;;;;;;;;;5074305;28;20891;-69
2023/05/21 12:17:04;;;;;;;56.43;2.93;;;;;;;;;;5074163;28;20835;-69
2023/05/21 12:19:33;;;;;;;56.90;2.63;;;;;;;;;;5073401;28;20913;-69
2023/05/21 12:22:01;;;;;;;57.17;2.50;;;;;;;;;;5074101;28;20489;-69
2023/05/21 12:24:29;;;;;;;56.87;2.93;;;;;;;;;;5073797;28;21144;-69
2023/05/21 12:26:58;;;;;;;56.80;2.83;;;;;;;;;;5073858;28;20874;-69
2023/05/21 12:29:26;;;;;;;56.70;2.30;;;;;;;;;;5073211;28;20447;-69
2023/05/21 12:31:53;;;;;;;56.90;2.30;;;;;;;;;;5073613;28;20482;-69
2023/05/21 12:34:40;;;;;;;56.97;2.50;;;;;;;;;;5073721;28;20825;-69
2023/05/21 12:37:07;;;;;;;57.37;2.50;;;;;;;;;;5073732;28;20796;-69
2023/05/21 12:39:38;;;;;;;57.10;2.70;;;;;;;;;;5072696;28;20451;-69
2023/05/21 12:42:05;;;;;;;56.47;2.20;;;;;;;;;;5073512;28;20459;-69
2023/05/21 12:44:34;;;;;;;57.00;2.60;;;;;;;;;;5073764;28;20454;-69
2023/05/21 12:47:01;;;;;;;56.83;2.23;;;;;;;;;;5073613;28;20490;-69
2023/05/21 12:49:32;;;;;;;56.80;2.23;;;;;;;;;;5072672;28;20460;-69
2023/05/21 12:51:59;;;;;;;56.80;2.50;;;;;;;;;;5072617;28;20479;-69
2023/05/21 12:54:29;;;;;;;56.73;2.33;;;;;;;;;;5073748;28;20447;-68
2023/05/21 12:56:56;;;;;;;56.87;2.53;;;;;;;;;;5073414;28;20454;-69
2023/05/21 12:59:23;;;;;;;59.10;4.03;;;;;;;;;;5072270;28;20966;-69
2023/05/21 13:01:53;;;;;;;57.63;2.93;;;;;;;;;;5073183;28;20474;-69
2023/05/21 13:04:20;;;;;;;57.10;2.40;;;;;;;;;;5072959;28;20443;-68
2023/05/21 13:06:47;;;;;;;56.80;2.40;;;;;;;;;;5073212;28;20458;-69
2023/05/21 13:09:15;;;;;;;57.50;3.10;;;;;;;;;;5071420;28;20464;-69
2023/05/21 13:11:42;;;;;;;57.30;2.80;;;;;;;;;;5072904;28;20474;-69
2023/05/21 13:14:09;;;;;;;58.30;3.80;;;;;;;;;;5073030;28;20594;-69
2023/05/21 13:16:36;;;;;;;57.00;2.43;;;;;;;;;;5073062;28;20444;-69
2023/05/21 13:19:04;;;;;;;57.97;4.10;;;;;;;;;;5072112;28;20444;-69
2023/05/21 13:21:31;;;;;;;60.00;3.20;;;;;;;;;;5072561;28;20501;-69
2023/05/21 13:23:59;;;;;;;56.77;2.07;;;;;;;;;;5072708;28;20462;-69
2023/05/21 13:26:26;;;;;;;57.97;3.50;;;;;;;;;;5072728;28;20455;-69
2023/05/21 13:28:53;;;;;;;57.37;3.00;;;;;;;;;;5071881;28;20954;-69
2023/05/21 13:31:20;;;;;;;56.57;2.20;;;;;;;;;;5072673;28;20473;-69
2023/05/21 13:33:47;;;;;;;57.00;2.40;;;;;;;;;;5072814;28;20572;-69
2023/05/21 13:36:16;;;;;;;56.67;2.27;;;;;;;;;;5072632;28;20538;-69
2023/05/21 13:38:43;;;;;;;56.70;2.00;;;;;;;;;;5071536;28;20951;-69
2023/05/21 13:41:10;;;;;;;57.60;2.70;;;;;;;;;;5072556;28;20475;-69
2023/05/21 13:43:37;;;;;;;56.97;2.67;;;;;;;;;;5072166;28;20948;-69
2023/05/21 13:46:05;;;;;;;57.40;2.70;;;;;;;;;;5072030;28;20447;-69
2023/05/21 13:48:32;;;;;;;57.77;2.73;;;;;;;;;;5071882;28;20443;-69
2023/05/21 13:50:59;;;;;;;56.80;2.27;;;;;;;;;;5072382;28;20463;-69
2023/05/21 13:53:27;;;;;;;57.10;3.00;;;;;;;;;;5071962;28;20483;-69
2023/05/21 13:55:54;;;;;;;56.93;2.80;;;;;;;;;;5072262;28;20451;-69
2023/05/21 13:58:21;;;;;;;57.07;2.00;;;;;;;;;;5072230;28;20447;-70
2023/05/21 14:00:48;;;;;;;56.60;2.20;;;;;;;;;;5071132;28;20558;-70
2023/05/21 14:03:16;;;;;;;57.57;3.97;;;;;;;;;;5072208;28;20462;-70
2023/05/21 14:05:43;;;;;;;59.50;4.30;;;;;;;;;;5072093;28;20451;-69
2023/05/21 14:08:10;;;;;;;56.90;2.20;;;;;;;;;;5072022;28;20454;-69
2023/05/21 14:10:38;;;;;;;56.60;2.30;;;;;;;;;;5070941;28;20479;-70
2023/05/21 14:13:05;;;;;;;57.33;2.50;;;;;;;;;;5071411;28;20479;-69
2023/05/21 14:15:33;;;;;;;57.73;2.83;;;;;;;;;;5071848;28;20481;-69
2023/05/21 14:18:00;;;;;;;57.60;2.70;;;;;;;;;;5071492;28;20460;-70
2023/05/21 14:20:27;;;;;;;57.17;2.07;;;;;;;;;;5070782;28;20496;-69
2023/05/21 14:22:54;;;;;;;57.43;2.07;;;;;;;;;;5071531;28;20447;-69
2023/05/21 14:25:21;;;;;;;56.80;2.10;;;;;;;;;;5071878;28;20473;-70
2023/05/21 14:27:50;;;;;;;57.00;2.27;;;;;;;;;;5071247;28;20451;-69
2023/05/21 14:30:17;;;;;;;56.70;2.20;;;;;;;;;;5070765;28;20451;-69
2023/05/21 14:32:44;;;;;;;57.90;2.53;;;;;;;;;;5071591;28;20584;-69
2023/05/21 14:35:11;;;;;;;57.10;2.27;;;;;;;;;;5071327;28;20455;-69